createdAt,value
2022-11-24T00:08:20.143Z,41.90
2022-11-24T00:18:45.049Z,44.65
2022-11-24T00:29:09.080Z,48.03
2022-11-24T00:39:32.219Z,49.20
2022-11-24T00:49:54.035Z,68.00
2022-11-24T01:00:18.698Z,62.85
2022-11-24T01:10:40.440Z,43.42
2022-11-24T01:21:09.981Z,48.15
2022-11-24T01:31:33.226Z,41.95
2022-11-24T01:41:56.578Z,55.15
2022-11-24T01:52:22.967Z,54.85
2022-11-24T02:02:47.047Z,53.87
2022-11-24T02:13:09.206Z,48.30
2022-11-24T02:23:41.876Z,45.45
2022-11-24T02:34:05.209Z,54.70
2022-11-24T02:44:35.956Z,46.13
2022-11-24T02:54:59.214Z,51.80
2022-11-24T03:05:21.367Z,52.30
2022-11-24T03:15:44.585Z,46.47
2022-11-24T03:26:10.282Z,32.25
2022-11-24T03:36:33.369Z,45.67
2022-11-24T03:46:55.473Z,42.50
2022-11-24T03:57:19.184Z,43.63
2022-11-24T04:07:41.775Z,52.95
2022-11-24T04:18:05.072Z,41.45
2022-11-24T04:28:27.285Z,34.78
2022-11-24T04:39:22.973Z,29.35
2022-11-24T04:49:36.444Z,39.90
2022-11-24T04:59:59.782Z,31.92
2022-11-24T05:10:36.882Z,35.92
2022-11-24T05:21:00.552Z,40.63
2022-11-24T05:31:22.145Z,33.97
2022-11-24T05:41:45.259Z,26.30
2022-11-24T05:52:07.013Z,29.02
2022-11-24T06:02:32.853Z,31.23
2022-11-24T06:12:54.675Z,25.73
2022-11-24T06:23:17.508Z,32.00
2022-11-24T06:33:40.166Z,44.53
2022-11-24T06:44:10.913Z,28.92
2022-11-24T06:54:32.935Z,38.47
2022-11-24T07:04:56.483Z,37.20
2022-11-24T07:15:20.669Z,23.90
2022-11-24T07:25:43.603Z,22.52
2022-11-24T07:36:07.124Z,30.75
2022-11-24T07:46:32.911Z,28.52
2022-11-24T07:56:55.065Z,28.45
2022-11-24T08:07:18.553Z,28.55
2022-11-24T08:17:43.741Z,25.00
2022-11-24T08:28:06.969Z,25.42
2022-11-24T08:38:28.769Z,34.03
2022-11-24T08:49:05.121Z,25.67
2022-11-24T08:59:26.918Z,21.63
2022-11-24T09:09:52.862Z,32.33
2022-11-24T09:20:14.852Z,24.80
2022-11-24T09:30:37.971Z,31.35
2022-11-24T09:41:21.834Z,29.13
2022-11-24T09:51:48.193Z,29.73
2022-11-24T10:02:13.345Z,26.30
2022-11-24T10:12:51.028Z,30.27
2022-11-24T10:23:29.938Z,31.77
2022-11-24T10:33:52.883Z,28.55
2022-11-24T10:44:15.599Z,32.28
2022-11-24T10:54:57.272Z,34.03
2022-11-24T11:05:42.123Z,35.42
2022-11-24T11:16:23.975Z,30.85
2022-11-24T11:26:45.668Z,33.75
2022-11-24T11:37:16.098Z,33.72
2022-11-24T11:47:44.061Z,31.48
2022-11-24T11:58:24.554Z,26.52
2022-11-24T12:09:19.238Z,29.13
2022-11-24T12:19:56.837Z,30.80
2022-11-24T12:30:19.677Z,30.27
2022-11-24T12:41:18.306Z,28.08
2022-11-24T12:51:43.946Z,25.98
2022-11-24T13:02:19.884Z,27.35
2022-11-24T13:12:55.018Z,26.63
2022-11-24T13:23:27.858Z,30.92
2022-11-24T13:33:49.070Z,36.30
2022-11-24T13:44:26.060Z,30.15
2022-11-24T13:54:50.844Z,35.17
2022-11-24T14:05:17.237Z,32.92
2022-11-24T14:15:39.237Z,30.02
2022-11-24T14:26:02.183Z,32.22
2022-11-24T14:36:24.017Z,34.45
2022-11-24T14:46:47.766Z,32.88
2022-11-24T14:57:24.650Z,34.88
2022-11-24T15:07:49.992Z,35.90
2022-11-24T15:18:26.414Z,39.67
2022-11-24T15:28:49.417Z,35.63
2022-11-24T15:39:11.068Z,34.88
2022-11-24T15:49:34.304Z,32.78
2022-11-24T15:59:56.097Z,45.88
2022-11-24T16:10:25.853Z,35.25
2022-11-24T16:20:47.430Z,34.35
2022-11-24T16:31:10.454Z,32.83
2022-11-24T16:41:32.267Z,29.77
2022-11-24T16:51:56.957Z,35.25
2022-11-24T17:02:18.973Z,30.67
2022-11-24T17:12:41.807Z,38.72
2022-11-24T17:23:03.630Z,31.35
2022-11-24T17:33:26.635Z,33.25
2022-11-24T17:43:50.240Z,31.63
2022-11-24T18:04:55.270Z,37.20
2022-11-24T18:15:18.506Z,33.08
2022-11-24T18:25:40.347Z,31.63
2022-11-24T18:36:09.078Z,36.63
2022-11-24T18:46:30.987Z,32.92
2022-11-24T18:56:57.781Z,37.72
2022-11-24T19:07:23.687Z,27.13
2022-11-24T19:17:48.964Z,33.42
2022-11-24T19:28:12.605Z,36.58
2022-11-24T19:38:37.387Z,31.83
2022-11-24T19:49:01.549Z,33.13
2022-11-24T19:59:26.381Z,39.00
2022-11-24T20:09:47.959Z,38.67
2022-11-24T20:20:11.604Z,44.60
2022-11-24T20:30:34.026Z,45.40
2022-11-24T20:41:07.400Z,49.30
2022-11-24T20:51:33.108Z,79.93
2022-11-24T21:01:57.042Z,66.70
2022-11-24T21:12:18.880Z,44.95
2022-11-24T21:22:41.736Z,36.05
2022-11-24T21:33:03.706Z,41.55
2022-11-24T21:43:28.664Z,37.97
2022-11-24T21:53:50.435Z,36.28
2022-11-24T22:04:13.504Z,36.38
2022-11-24T22:14:40.242Z,41.65
2022-11-24T22:35:25.472Z,40.97
2022-11-24T22:45:49.022Z,42.25
2022-11-24T22:56:12.625Z,42.05
2022-11-24T23:06:35.792Z,39.95
2022-11-24T23:16:57.447Z,43.22
2022-11-24T23:27:20.838Z,40.95
2022-11-24T23:38:06.576Z,38.38
2022-11-24T23:48:25.576Z,33.47
2022-11-24T23:58:47.209Z,34.75
